sensor_id;sensor_type;location;lat;lon;timestamp;temperature;humidity
76577;DHT22;65441;44.748;37.600;2023-08-01T00:02:04;22.93;72.73
76577;DHT22;65441;44.748;37.600;2023-08-01T00:04:32;22.96;73.99
76577;DHT22;65441;44.748;37.600;2023-08-01T00:07:01;22.94;74.80
76577;DHT22;65441;44.748;37.600;2023-08-01T00:09:29;22.72;73.48
76577;DHT22;65441;44.748;37.600;2023-08-01T00:11:57;22.55;74.67
76577;DHT22;65441;44.748;37.600;2023-08-01T00:14:25;22.41;74.70
76577;DHT22;65441;44.748;37.600;2023-08-01T00:16:53;22.31;75.18
76577;DHT22;65441;44.748;37.600;2023-08-01T00:19:22;22.33;74.89
76577;DHT22;65441;44.748;37.600;2023-08-01T00:21:50;22.40;75.28
76577;DHT22;65441;44.748;37.600;2023-08-01T00:24:18;22.19;75.44
76577;DHT22;65441;44.748;37.600;2023-08-01T00:26:47;22.12;75.54
76577;DHT22;65441;44.748;37.600;2023-08-01T00:29:15;22.02;75.89
76577;DHT22;65441;44.748;37.600;2023-08-01T00:31:43;22.02;75.52
76577;DHT22;65441;44.748;37.600;2023-08-01T00:34:11;22.13;75.08
76577;DHT22;65441;44.748;37.600;2023-08-01T00:36:40;22.05;75.44
76577;DHT22;65441;44.748;37.600;2023-08-01T00:39:08;21.97;75.59
76577;DHT22;65441;44.748;37.600;2023-08-01T00:41:37;21.94;76.31
76577;DHT22;65441;44.748;37.600;2023-08-01T00:44:05;22.28;76.17
76577;DHT22;65441;44.748;37.600;2023-08-01T00:46:33;22.17;75.10
76577;DHT22;65441;44.748;37.600;2023-08-01T00:49:02;22.08;76.12
76577;DHT22;65441;44.748;37.600;2023-08-01T00:51:31;21.93;76.47
76577;DHT22;65441;44.748;37.600;2023-08-01T00:54:01;21.90;77.82
76577;DHT22;65441;44.748;37.600;2023-08-01T00:56:31;21.85;76.75
76577;DHT22;65441;44.748;37.600;2023-08-01T00:58:59;21.80;77.13
76577;DHT22;65441;44.748;37.600;2023-08-01T01:01:27;21.77;77.33
76577;DHT22;65441;44.748;37.600;2023-08-01T01:03:56;21.69;77.77
76577;DHT22;65441;44.748;37.600;2023-08-01T01:06:28;21.79;78.92
76577;DHT22;65441;44.748;37.600;2023-08-01T01:08:58;21.73;77.82
76577;DHT22;65441;44.748;37.600;2023-08-01T01:11:27;22.03;76.63
76577;DHT22;65441;44.748;37.600;2023-08-01T01:13:55;22.17;76.31
76577;DHT22;65441;44.748;37.600;2023-08-01T01:16:23;21.98;77.78
76577;DHT22;65441;44.748;37.600;2023-08-01T01:18:52;21.89;77.45
76577;DHT22;65441;44.748;37.600;2023-08-01T01:21:21;21.89;77.58
76577;DHT22;65441;44.748;37.600;2023-08-01T01:23:52;21.79;79.09
76577;DHT22;65441;44.748;37.600;2023-08-01T01:26:21;21.99;78.11
76577;DHT22;65441;44.748;37.600;2023-08-01T01:28:50;21.81;78.36
76577;DHT22;65441;44.748;37.600;2023-08-01T01:31:19;21.72;78.20
76577;DHT22;65441;44.748;37.600;2023-08-01T01:33:47;21.82;77.70
76577;DHT22;65441;44.748;37.600;2023-08-01T01:36:16;21.73;78.29
76577;DHT22;65441;44.748;37.600;2023-08-01T01:38:45;21.59;78.69
76577;DHT22;65441;44.748;37.600;2023-08-01T01:41:14;21.73;79.77
76577;DHT22;65441;44.748;37.600;2023-08-01T01:43:42;21.73;80.62
76577;DHT22;65441;44.748;37.600;2023-08-01T01:46:11;22.03;77.21
76577;DHT22;65441;44.748;37.600;2023-08-01T01:48:39;21.82;78.73
76577;DHT22;65441;44.748;37.600;2023-08-01T01:51:09;21.63;79.21
76577;DHT22;65441;44.748;37.600;2023-08-01T01:53:37;21.67;78.27
76577;DHT22;65441;44.748;37.600;2023-08-01T01:56:06;21.54;79.42
76577;DHT22;65441;44.748;37.600;2023-08-01T01:58:34;21.59;78.75
76577;DHT22;65441;44.748;37.600;2023-08-01T02:01:02;21.57;79.41
76577;DHT22;65441;44.748;37.600;2023-08-01T02:03:31;21.74;80.54
76577;DHT22;65441;44.748;37.600;2023-08-01T02:05:59;21.70;78.89
76577;DHT22;65441;44.748;37.600;2023-08-01T02:08:27;21.72;78.82
76577;DHT22;65441;44.748;37.600;2023-08-01T02:10:55;21.69;79.49
76577;DHT22;65441;44.748;37.600;2023-08-01T02:13:26;21.75;79.19
76577;DHT22;65441;44.748;37.600;2023-08-01T02:15:55;21.72;79.43
76577;DHT22;65441;44.748;37.600;2023-08-01T02:18:23;21.92;78.82
76577;DHT22;65441;44.748;37.600;2023-08-01T02:20:51;21.81;78.96
76577;DHT22;65441;44.748;37.600;2023-08-01T02:23:20;21.84;80.27
76577;DHT22;65441;44.748;37.600;2023-08-01T02:25:48;21.83;79.15
76577;DHT22;65441;44.748;37.600;2023-08-01T02:28:16;21.88;79.67
76577;DHT22;65441;44.748;37.600;2023-08-01T02:30:45;21.98;78.83
76577;DHT22;65441;44.748;37.600;2023-08-01T02:33:14;22.03;79.20
76577;DHT22;65441;44.748;37.600;2023-08-01T02:35:42;22.12;79.06
76577;DHT22;65441;44.748;37.600;2023-08-01T02:38:10;22.05;79.47
76577;DHT22;65441;44.748;37.600;2023-08-01T02:40:38;22.11;79.17
76577;DHT22;65441;44.748;37.600;2023-08-01T02:43:06;22.13;79.14
76577;DHT22;65441;44.748;37.600;2023-08-01T02:45:34;22.36;79.74
76577;DHT22;65441;44.748;37.600;2023-08-01T02:48:04;22.37;80.05
76577;DHT22;65441;44.748;37.600;2023-08-01T02:50:32;22.42;79.50
76577;DHT22;65441;44.748;37.600;2023-08-01T02:53:00;22.44;80.16
76577;DHT22;65441;44.748;37.600;2023-08-01T02:55:28;22.51;80.17
76577;DHT22;65441;44.748;37.600;2023-08-01T02:57:56;22.62;80.53
76577;DHT22;65441;44.748;37.600;2023-08-01T03:00:24;22.78;79.77
76577;DHT22;65441;44.748;37.600;2023-08-01T03:02:52;23.02;79.85
76577;DHT22;65441;44.748;37.600;2023-08-01T03:05:22;23.32;76.88
76577;DHT22;65441;44.748;37.600;2023-08-01T03:07:50;23.57;82.64
76577;DHT22;65441;44.748;37.600;2023-08-01T03:10:18;23.72;84.35
76577;DHT22;65441;44.748;37.600;2023-08-01T03:12:46;23.84;83.33
76577;DHT22;65441;44.748;37.600;2023-08-01T03:15:14;23.88;85.13
76577;DHT22;65441;44.748;37.600;2023-08-01T03:17:42;23.98;81.60
76577;DHT22;65441;44.748;37.600;2023-08-01T03:20:11;24.11;84.56
76577;DHT22;65441;44.748;37.600;2023-08-01T03:22:41;24.17;84.58
76577;DHT22;65441;44.748;37.600;2023-08-01T03:25:09;24.24;84.44
76577;DHT22;65441;44.748;37.600;2023-08-01T03:27:37;24.27;84.51
76577;DHT22;65441;44.748;37.600;2023-08-01T03:30:06;24.32;83.80
76577;DHT22;65441;44.748;37.600;2023-08-01T03:32:35;24.35;83.84
76577;DHT22;65441;44.748;37.600;2023-08-01T03:35:05;24.44;83.66
76577;DHT22;65441;44.748;37.600;2023-08-01T03:37:33;24.43;84.04
76577;DHT22;65441;44.748;37.600;2023-08-01T03:40:03;24.44;83.68
76577;DHT22;65441;44.748;37.600;2023-08-01T03:42:31;24.54;83.62
76577;DHT22;65441;44.748;37.600;2023-08-01T03:45:00;24.53;83.56
76577;DHT22;65441;44.748;37.600;2023-08-01T03:47:28;24.66;82.49
76577;DHT22;65441;44.748;37.600;2023-08-01T03:49:56;24.76;83.08
76577;DHT22;65441;44.748;37.600;2023-08-01T03:52:24;24.91;81.36
76577;DHT22;65441;44.748;37.600;2023-08-01T03:54:55;24.97;81.93
76577;DHT22;65441;44.748;37.600;2023-08-01T03:57:32;25.01;82.49
76577;DHT22;65441;44.748;37.600;2023-08-01T04:00:03;24.95;82.46
76577;DHT22;65441;44.748;37.600;2023-08-01T04:02:39;24.93;82.49
76577;DHT22;65441;44.748;37.600;2023-08-01T04:05:08;24.94;82.19
76577;DHT22;65441;44.748;37.600;2023-08-01T04:07:36;25.02;81.37
76577;DHT22;65441;44.748;37.600;2023-08-01T04:10:06;25.22;80.68
76577;DHT22;65441;44.748;37.600;2023-08-01T04:12:35;25.67;79.37
76577;DHT22;65441;44.748;37.600;2023-08-01T04:15:04;26.03;76.62
76577;DHT22;65441;44.748;37.600;2023-08-01T04:17:32;26.31;75.63
76577;DHT22;65441;44.748;37.600;2023-08-01T04:20:00;26.37;75.25
76577;DHT22;65441;44.748;37.600;2023-08-01T04:22:28;26.31;75.30
76577;DHT22;65441;44.748;37.600;2023-08-01T04:24:57;26.10;76.01
76577;DHT22;65441;44.748;37.600;2023-08-01T04:27:25;25.99;76.23
76577;DHT22;65441;44.748;37.600;2023-08-01T04:29:55;26.15;75.67
76577;DHT22;65441;44.748;37.600;2023-08-01T04:32:24;26.46;74.17
76577;DHT22;65441;44.748;37.600;2023-08-01T04:34:52;26.53;74.01
76577;DHT22;65441;44.748;37.600;2023-08-01T04:37:20;26.60;72.74
76577;DHT22;65441;44.748;37.600;2023-08-01T04:39:49;26.60;72.78
76577;DHT22;65441;44.748;37.600;2023-08-01T04:42:18;26.56;72.62
76577;DHT22;65441;44.748;37.600;2023-08-01T04:44:46;26.47;72.13
76577;DHT22;65441;44.748;37.600;2023-08-01T04:47:15;26.46;72.22
76577;DHT22;65441;44.748;37.600;2023-08-01T04:49:43;26.37;72.54
76577;DHT22;65441;44.748;37.600;2023-08-01T04:52:12;26.31;72.28
76577;DHT22;65441;44.748;37.600;2023-08-01T04:54:40;26.40;72.09
76577;DHT22;65441;44.748;37.600;2023-08-01T04:57:08;26.17;71.96
76577;DHT22;65441;44.748;37.600;2023-08-01T04:59:36;26.03;72.82
76577;DHT22;65441;44.748;37.600;2023-08-01T05:02:04;25.97;73.66
76577;DHT22;65441;44.748;37.600;2023-08-01T05:04:34;26.66;71.28
76577;DHT22;65441;44.748;37.600;2023-08-01T05:07:02;26.96;69.58
76577;DHT22;65441;44.748;37.600;2023-08-01T05:09:32;26.85;69.67
76577;DHT22;65441;44.748;37.600;2023-08-01T05:12:01;26.64;70.55
76577;DHT22;65441;44.748;37.600;2023-08-01T05:14:29;27.15;67.87
76577;DHT22;65441;44.748;37.600;2023-08-01T05:16:57;27.73;66.97
76577;DHT22;65441;44.748;37.600;2023-08-01T05:19:25;28.23;65.11
76577;DHT22;65441;44.748;37.600;2023-08-01T05:21:54;28.47;63.67
76577;DHT22;65441;44.748;37.600;2023-08-01T05:24:22;28.82;63.15
76577;DHT22;65441;44.748;37.600;2023-08-01T05:26:51;28.92;61.94
76577;DHT22;65441;44.748;37.600;2023-08-01T05:29:19;28.67;62.95
76577;DHT22;65441;44.748;37.600;2023-08-01T05:31:47;28.60;63.21
76577;DHT22;65441;44.748;37.600;2023-08-01T05:34:15;28.78;61.24
76577;DHT22;65441;44.748;37.600;2023-08-01T05:36:43;29.16;60.22
76577;DHT22;65441;44.748;37.600;2023-08-01T05:39:13;29.52;59.54
76577;DHT22;65441;44.748;37.600;2023-08-01T05:41:41;29.60;56.90
76577;DHT22;65441;44.748;37.600;2023-08-01T05:44:09;29.77;55.95
76577;DHT22;65441;44.748;37.600;2023-08-01T05:46:37;29.83;56.70
76577;DHT22;65441;44.748;37.600;2023-08-01T05:49:06;30.10;55.58
76577;DHT22;65441;44.748;37.600;2023-08-01T05:51:36;29.97;53.83
76577;DHT22;65441;44.748;37.600;2023-08-01T05:54:04;29.77;53.46
76577;DHT22;65441;44.748;37.600;2023-08-01T05:56:33;29.75;53.32
76577;DHT22;65441;44.748;37.600;2023-08-01T05:59:01;29.53;53.64
76577;DHT22;65441;44.748;37.600;2023-08-01T06:01:30;29.12;53.98
76577;DHT22;65441;44.748;37.600;2023-08-01T06:03:58;28.76;56.74
76577;DHT22;65441;44.748;37.600;2023-08-01T06:06:26;28.83;57.67
76577;DHT22;65441;44.748;37.600;2023-08-01T06:08:54;28.75;58.95
76577;DHT22;65441;44.748;37.600;2023-08-01T06:11:23;28.78;55.40
76577;DHT22;65441;44.748;37.600;2023-08-01T06:13:53;28.98;58.87
76577;DHT22;65441;44.748;37.600;2023-08-01T06:16:24;29.02;57.80
76577;DHT22;65441;44.748;37.600;2023-08-01T06:18:52;28.67;58.89
76577;DHT22;65441;44.748;37.600;2023-08-01T06:21:20;28.93;58.37
76577;DHT22;65441;44.748;37.600;2023-08-01T06:23:48;29.30;56.97
76577;DHT22;65441;44.748;37.600;2023-08-01T06:26:16;29.62;57.70
76577;DHT22;65441;44.748;37.600;2023-08-01T06:28:44;29.44;56.42
76577;DHT22;65441;44.748;37.600;2023-08-01T06:31:14;29.52;56.37
76577;DHT22;65441;44.748;37.600;2023-08-01T06:33:43;29.78;55.81
76577;DHT22;65441;44.748;37.600;2023-08-01T06:36:11;29.74;57.33
76577;DHT22;65441;44.748;37.600;2023-08-01T06:38:39;30.39;54.75
76577;DHT22;65441;44.748;37.600;2023-08-01T06:41:07;30.30;53.75
76577;DHT22;65441;44.748;37.600;2023-08-01T06:43:36;30.20;54.39
76577;DHT22;65441;44.748;37.600;2023-08-01T06:46:05;30.18;54.55
76577;DHT22;65441;44.748;37.600;2023-08-01T06:48:35;30.07;55.53
76577;DHT22;65441;44.748;37.600;2023-08-01T06:51:05;30.25;55.31
76577;DHT22;65441;44.748;37.600;2023-08-01T06:53:34;30.61;55.07
76577;DHT22;65441;44.748;37.600;2023-08-01T06:56:04;30.49;55.87
76577;DHT22;65441;44.748;37.600;2023-08-01T06:58:34;30.32;53.56
76577;DHT22;65441;44.748;37.600;2023-08-01T07:01:04;30.65;55.26
76577;DHT22;65441;44.748;37.600;2023-08-01T07:03:33;31.01;54.38
76577;DHT22;65441;44.748;37.600;2023-08-01T07:06:04;30.90;55.08
76577;DHT22;65441;44.748;37.600;2023-08-01T07:08:33;30.65;54.83
76577;DHT22;65441;44.748;37.600;2023-08-01T07:11:03;30.21;55.81
76577;DHT22;65441;44.748;37.600;2023-08-01T07:13:33;30.18;57.48
76577;DHT22;65441;44.748;37.600;2023-08-01T07:16:01;30.60;55.66
76577;DHT22;65441;44.748;37.600;2023-08-01T07:18:30;30.70;55.84
76577;DHT22;65441;44.748;37.600;2023-08-01T07:21:05;30.00;57.28
76577;DHT22;65441;44.748;37.600;2023-08-01T07:23:34;30.25;56.96
76577;DHT22;65441;44.748;37.600;2023-08-01T07:26:03;30.15;57.64
76577;DHT22;65441;44.748;37.600;2023-08-01T07:28:31;30.09;57.11
76577;DHT22;65441;44.748;37.600;2023-08-01T07:30:59;30.23;56.39
76577;DHT22;65441;44.748;37.600;2023-08-01T07:33:28;30.17;56.26
76577;DHT22;65441;44.748;37.600;2023-08-01T07:35:56;30.35;56.08
76577;DHT22;65441;44.748;37.600;2023-08-01T07:38:26;30.26;54.72
76577;DHT22;65441;44.748;37.600;2023-08-01T07:40:56;29.66;56.44
76577;DHT22;65441;44.748;37.600;2023-08-01T07:43:26;29.80;56.52
76577;DHT22;65441;44.748;37.600;2023-08-01T07:45:56;29.82;56.96
76577;DHT22;65441;44.748;37.600;2023-08-01T07:48:25;29.50;57.58
76577;DHT22;65441;44.748;37.600;2023-08-01T07:50:56;29.51;58.41
76577;DHT22;65441;44.748;37.600;2023-08-01T07:53:25;29.59;57.52
76577;DHT22;65441;44.748;37.600;2023-08-01T07:55:55;29.44;58.16
76577;DHT22;65441;44.748;37.600;2023-08-01T07:58:24;29.47;58.02
76577;DHT22;65441;44.748;37.600;2023-08-01T08:00:52;29.26;59.17
76577;DHT22;65441;44.748;37.600;2023-08-01T08:03:20;29.29;59.46
76577;DHT22;65441;44.748;37.600;2023-08-01T08:05:53;29.44;58.24
76577;DHT22;65441;44.748;37.600;2023-08-01T08:08:24;29.37;58.54
76577;DHT22;65441;44.748;37.600;2023-08-01T08:10:55;29.31;60.51
76577;DHT22;65441;44.748;37.600;2023-08-01T08:13:23;29.27;60.71
76577;DHT22;65441;44.748;37.600;2023-08-01T08:15:55;29.02;60.02
76577;DHT22;65441;44.748;37.600;2023-08-01T08:18:24;29.05;59.90
76577;DHT22;65441;44.748;37.600;2023-08-01T08:20:53;29.02;60.24
76577;DHT22;65441;44.748;37.600;2023-08-01T08:23:21;29.06;60.67
76577;DHT22;65441;44.748;37.600;2023-08-01T08:25:51;29.08;61.21
76577;DHT22;65441;44.748;37.600;2023-08-01T08:28:29;29.13;62.27
76577;DHT22;65441;44.748;37.600;2023-08-01T08:30:59;29.03;62.76
76577;DHT22;65441;44.748;37.600;2023-08-01T08:33:29;28.82;61.15
76577;DHT22;65441;44.748;37.600;2023-08-01T08:35:58;28.87;61.11
76577;DHT22;65441;44.748;37.600;2023-08-01T08:38:26;29.03;59.40
76577;DHT22;65441;44.748;37.600;2023-08-01T08:41:06;29.08;60.41
76577;DHT22;65441;44.748;37.600;2023-08-01T08:43:37;28.84;61.58
76577;DHT22;65441;44.748;37.600;2023-08-01T08:46:05;29.43;60.88
76577;DHT22;65441;44.748;37.600;2023-08-01T08:48:37;30.10;57.91
76577;DHT22;65441;44.748;37.600;2023-08-01T08:51:08;30.44;57.03
76577;DHT22;65441;44.748;37.600;2023-08-01T08:53:40;30.49;56.31
76577;DHT22;65441;44.748;37.600;2023-08-01T08:56:09;30.54;56.41
76577;DHT22;65441;44.748;37.600;2023-08-01T08:58:39;30.53;56.41
76577;DHT22;65441;44.748;37.600;2023-08-01T09:01:10;30.53;54.91
76577;DHT22;65441;44.748;37.600;2023-08-01T09:03:41;30.27;55.00
76577;DHT22;65441;44.748;37.600;2023-08-01T09:06:15;30.05;56.31
76577;DHT22;65441;44.748;37.600;2023-08-01T09:08:48;29.97;56.13
76577;DHT22;65441;44.748;37.600;2023-08-01T09:11:24;30.01;57.80
76577;DHT22;65441;44.748;37.600;2023-08-01T09:13:56;29.87;57.62
76577;DHT22;65441;44.748;37.600;2023-08-01T09:16:25;29.95;56.39
76577;DHT22;65441;44.748;37.600;2023-08-01T09:18:55;30.31;55.80
76577;DHT22;65441;44.748;37.600;2023-08-01T09:21:26;30.22;55.26
76577;DHT22;65441;44.748;37.600;2023-08-01T09:23:55;30.08;57.03
76577;DHT22;65441;44.748;37.600;2023-08-01T09:26:25;29.79;56.91
76577;DHT22;65441;44.748;37.600;2023-08-01T09:28:58;29.71;56.74
76577;DHT22;65441;44.748;37.600;2023-08-01T09:31:28;29.72;57.84
76577;DHT22;65441;44.748;37.600;2023-08-01T09:33:57;29.66;57.70
76577;DHT22;65441;44.748;37.600;2023-08-01T09:36:26;29.54;58.80
76577;DHT22;65441;44.748;37.600;2023-08-01T09:39:01;29.58;58.48
76577;DHT22;65441;44.748;37.600;2023-08-01T09:41:31;29.73;58.52
76577;DHT22;65441;44.748;37.600;2023-08-01T09:44:02;29.73;57.67
76577;DHT22;65441;44.748;37.600;2023-08-01T09:46:30;29.57;58.18
76577;DHT22;65441;44.748;37.600;2023-08-01T09:49:07;29.48;59.01
76577;DHT22;65441;44.748;37.600;2023-08-01T09:51:46;29.42;58.96
76577;DHT22;65441;44.748;37.600;2023-08-01T09:54:16;29.44;59.50
76577;DHT22;65441;44.748;37.600;2023-08-01T09:56:45;30.13;58.10
76577;DHT22;65441;44.748;37.600;2023-08-01T09:59:19;29.93;57.26
76577;DHT22;65441;44.748;37.600;2023-08-01T10:01:50;29.85;58.78
76577;DHT22;65441;44.748;37.600;2023-08-01T10:04:22;29.78;57.58
76577;DHT22;65441;44.748;37.600;2023-08-01T10:06:54;29.76;58.28
76577;DHT22;65441;44.748;37.600;2023-08-01T10:09:25;29.91;57.52
76577;DHT22;65441;44.748;37.600;2023-08-01T10:11:56;29.94;57.45
76577;DHT22;65441;44.748;37.600;2023-08-01T10:14:27;29.88;57.13
76577;DHT22;65441;44.748;37.600;2023-08-01T10:16:56;29.68;58.19
76577;DHT22;65441;44.748;37.600;2023-08-01T10:19:25;29.82;57.62
76577;DHT22;65441;44.748;37.600;2023-08-01T10:21:54;29.66;57.91
76577;DHT22;65441;44.748;37.600;2023-08-01T10:24:30;29.56;58.97
76577;DHT22;65441;44.748;37.600;2023-08-01T10:27:12;29.53;58.67
76577;DHT22;65441;44.748;37.600;2023-08-01T10:29:43;29.49;59.11
76577;DHT22;65441;44.748;37.600;2023-08-01T10:32:15;29.70;58.53
76577;DHT22;65441;44.748;37.600;2023-08-01T10:34:52;29.67;58.45
76577;DHT22;65441;44.748;37.600;2023-08-01T10:37:25;29.75;57.69
76577;DHT22;65441;44.748;37.600;2023-08-01T10:39:57;29.94;55.07
76577;DHT22;65441;44.748;37.600;2023-08-01T10:42:26;30.15;54.95
76577;DHT22;65441;44.748;37.600;2023-08-01T10:45:19;30.28;55.02
76577;DHT22;65441;44.748;37.600;2023-08-01T10:48:06;30.49;54.84
76577;DHT22;65441;44.748;37.600;2023-08-01T10:50:38;30.80;53.76
76577;DHT22;65441;44.748;37.600;2023-08-01T10:53:08;30.72;55.43
76577;DHT22;65441;44.748;37.600;2023-08-01T10:55:42;30.77;55.29
76577;DHT22;65441;44.748;37.600;2023-08-01T10:58:17;30.78;55.33
76577;DHT22;65441;44.748;37.600;2023-08-01T11:00:58;31.12;53.39
76577;DHT22;65441;44.748;37.600;2023-08-01T11:03:34;31.48;52.90
76577;DHT22;65441;44.748;37.600;2023-08-01T11:06:05;31.64;52.65
76577;DHT22;65441;44.748;37.600;2023-08-01T11:08:37;31.43;53.58
76577;DHT22;65441;44.748;37.600;2023-08-01T11:11:13;31.15;53.57
76577;DHT22;65441;44.748;37.600;2023-08-01T11:13:51;31.34;53.88
76577;DHT22;65441;44.748;37.600;2023-08-01T11:16:25;31.46;53.04
76577;DHT22;65441;44.748;37.600;2023-08-01T11:18:53;31.60;54.06
76577;DHT22;65441;44.748;37.600;2023-08-01T11:21:30;31.50;53.52
76577;DHT22;65441;44.748;37.600;2023-08-01T11:24:07;31.73;52.55
76577;DHT22;65441;44.748;37.600;2023-08-01T11:26:42;31.45;51.76
76577;DHT22;65441;44.748;37.600;2023-08-01T11:29:13;31.48;52.36
76577;DHT22;65441;44.748;37.600;2023-08-01T11:31:53;31.46;52.33
76577;DHT22;65441;44.748;37.600;2023-08-01T11:34:21;31.51;51.91
76577;DHT22;65441;44.748;37.600;2023-08-01T11:36:54;31.69;52.65
76577;DHT22;65441;44.748;37.600;2023-08-01T11:39:26;31.71;51.31
76577;DHT22;65441;44.748;37.600;2023-08-01T11:41:54;31.36;52.91
76577;DHT22;65441;44.748;37.600;2023-08-01T11:44:24;31.61;50.14
76577;DHT22;65441;44.748;37.600;2023-08-01T11:46:54;31.41;50.70
76577;DHT22;65441;44.748;37.600;2023-08-01T11:49:25;31.58;49.62
76577;DHT22;65441;44.748;37.600;2023-08-01T11:51:58;31.54;49.24
76577;DHT22;65441;44.748;37.600;2023-08-01T11:54:28;31.43;47.42
76577;DHT22;65441;44.748;37.600;2023-08-01T11:57:04;31.27;45.19
76577;DHT22;65441;44.748;37.600;2023-08-01T11:59:45;31.09;45.57
76577;DHT22;65441;44.748;37.600;2023-08-01T12:02:27;31.04;46.19
76577;DHT22;65441;44.748;37.600;2023-08-01T12:04:57;30.82;45.14
76577;DHT22;65441;44.748;37.600;2023-08-01T12:07:29;30.92;46.12
76577;DHT22;65441;44.748;37.600;2023-08-01T12:10:00;30.92;42.20
76577;DHT22;65441;44.748;37.600;2023-08-01T12:12:32;30.97;47.39
76577;DHT22;65441;44.748;37.600;2023-08-01T12:15:19;31.18;49.15
76577;DHT22;65441;44.748;37.600;2023-08-01T12:17:50;31.07;49.71
76577;DHT22;65441;44.748;37.600;2023-08-01T12:20:20;31.10;47.10
76577;DHT22;65441;44.748;37.600;2023-08-01T12:22:49;31.06;45.25
76577;DHT22;65441;44.748;37.600;2023-08-01T12:25:17;30.68;44.61
76577;DHT22;65441;44.748;37.600;2023-08-01T12:27:49;30.87;47.14
76577;DHT22;65441;44.748;37.600;2023-08-01T12:30:20;30.64;45.35
76577;DHT22;65441;44.748;37.600;2023-08-01T12:32:56;30.56;46.96
76577;DHT22;65441;44.748;37.600;2023-08-01T12:35:24;30.45;45.90
76577;DHT22;65441;44.748;37.600;2023-08-01T12:37:54;30.59;47.49
76577;DHT22;65441;44.748;37.600;2023-08-01T12:40:23;30.79;45.40
76577;DHT22;65441;44.748;37.600;2023-08-01T12:42:52;30.67;45.67
76577;DHT22;65441;44.748;37.600;2023-08-01T12:45:23;30.77;43.34
76577;DHT22;65441;44.748;37.600;2023-08-01T12:47:56;30.78;46.51
76577;DHT22;65441;44.748;37.600;2023-08-01T12:50:25;30.98;46.95
76577;DHT22;65441;44.748;37.600;2023-08-01T12:52:58;30.67;44.50
76577;DHT22;65441;44.748;37.600;2023-08-01T12:55:27;30.55;46.07
76577;DHT22;65441;44.748;37.600;2023-08-01T12:57:56;30.52;48.57
76577;DHT22;65441;44.748;37.600;2023-08-01T13:00:24;30.37;49.74
76577;DHT22;65441;44.748;37.600;2023-08-01T13:02:53;30.48;50.09
76577;DHT22;65441;44.748;37.600;2023-08-01T13:05:22;30.37;48.30
76577;DHT22;65441;44.748;37.600;2023-08-01T13:07:50;30.34;48.50
76577;DHT22;65441;44.748;37.600;2023-08-01T13:10:18;30.32;48.73
76577;DHT22;65441;44.748;37.600;2023-08-01T13:12:47;30.25;48.68
76577;DHT22;65441;44.748;37.600;2023-08-01T13:15:15;29.87;52.49
76577;DHT22;65441;44.748;37.600;2023-08-01T13:17:44;30.01;52.54
76577;DHT22;65441;44.748;37.600;2023-08-01T13:20:14;29.74;52.81
76577;DHT22;65441;44.748;37.600;2023-08-01T13:22:42;29.86;53.23
76577;DHT22;65441;44.748;37.600;2023-08-01T13:25:13;29.82;53.91
76577;DHT22;65441;44.748;37.600;2023-08-01T13:27:43;29.85;53.46
76577;DHT22;65441;44.748;37.600;2023-08-01T13:30:14;29.82;54.55
76577;DHT22;65441;44.748;37.600;2023-08-01T13:32:44;30.03;55.26
76577;DHT22;65441;44.748;37.600;2023-08-01T13:35:14;29.75;56.55
76577;DHT22;65441;44.748;37.600;2023-08-01T13:37:45;29.64;56.43
76577;DHT22;65441;44.748;37.600;2023-08-01T13:40:15;29.56;57.82
76577;DHT22;65441;44.748;37.600;2023-08-01T13:42:47;29.61;57.50
76577;DHT22;65441;44.748;37.600;2023-08-01T13:45:15;29.62;56.23
76577;DHT22;65441;44.748;37.600;2023-08-01T13:47:43;29.47;58.37
76577;DHT22;65441;44.748;37.600;2023-08-01T13:50:15;29.35;58.34
76577;DHT22;65441;44.748;37.600;2023-08-01T13:52:43;29.23;58.89
76577;DHT22;65441;44.748;37.600;2023-08-01T13:55:14;29.08;59.80
76577;DHT22;65441;44.748;37.600;2023-08-01T13:57:47;29.13;58.89
76577;DHT22;65441;44.748;37.600;2023-08-01T14:00:15;29.15;59.79
76577;DHT22;65441;44.748;37.600;2023-08-01T14:02:44;28.98;60.75
76577;DHT22;65441;44.748;37.600;2023-08-01T14:05:15;29.09;60.46
76577;DHT22;65441;44.748;37.600;2023-08-01T14:07:44;29.11;59.94
76577;DHT22;65441;44.748;37.600;2023-08-01T14:10:12;28.87;60.44
76577;DHT22;65441;44.748;37.600;2023-08-01T14:12:42;28.77;59.96
76577;DHT22;65441;44.748;37.600;2023-08-01T14:15:10;28.89;59.73
76577;DHT22;65441;44.748;37.600;2023-08-01T14:17:39;28.90;59.99
76577;DHT22;65441;44.748;37.600;2023-08-01T14:20:08;28.69;60.99
76577;DHT22;65441;44.748;37.600;2023-08-01T14:22:38;28.76;61.18
76577;DHT22;65441;44.748;37.600;2023-08-01T14:25:09;28.65;61.66
76577;DHT22;65441;44.748;37.600;2023-08-01T14:27:37;28.59;61.59
76577;DHT22;65441;44.748;37.600;2023-08-01T14:30:06;28.54;62.37
76577;DHT22;65441;44.748;37.600;2023-08-01T14:32:37;28.45;61.96
76577;DHT22;65441;44.748;37.600;2023-08-01T14:35:06;28.47;62.18
76577;DHT22;65441;44.748;37.600;2023-08-01T14:37:37;28.46;61.99
76577;DHT22;65441;44.748;37.600;2023-08-01T14:40:09;28.39;61.03
76577;DHT22;65441;44.748;37.600;2023-08-01T14:42:37;28.39;61.61
76577;DHT22;65441;44.748;37.600;2023-08-01T14:45:06;28.44;61.33
76577;DHT22;65441;44.748;37.600;2023-08-01T14:47:35;28.46;60.41
76577;DHT22;65441;44.748;37.600;2023-08-01T14:50:04;28.30;58.67
76577;DHT22;65441;44.748;37.600;2023-08-01T14:52:33;28.27;59.84
76577;DHT22;65441;44.748;37.600;2023-08-01T14:55:03;28.03;60.59
76577;DHT22;65441;44.748;37.600;2023-08-01T14:57:31;28.01;61.25
76577;DHT22;65441;44.748;37.600;2023-08-01T15:00:00;27.86;62.73
76577;DHT22;65441;44.748;37.600;2023-08-01T15:02:29;27.86;62.70
76577;DHT22;65441;44.748;37.600;2023-08-01T15:04:57;27.87;62.05
76577;DHT22;65441;44.748;37.600;2023-08-01T15:07:26;27.63;63.23
76577;DHT22;65441;44.748;37.600;2023-08-01T15:09:54;27.59;62.41
76577;DHT22;65441;44.748;37.600;2023-08-01T15:12:23;27.63;62.25
76577;DHT22;65441;44.748;37.600;2023-08-01T15:14:53;27.53;63.07
76577;DHT22;65441;44.748;37.600;2023-08-01T15:17:21;27.40;64.60
76577;DHT22;65441;44.748;37.600;2023-08-01T15:19:52;27.36;65.03
76577;DHT22;65441;44.748;37.600;2023-08-01T15:22:20;27.23;65.14
76577;DHT22;65441;44.748;37.600;2023-08-01T15:24:49;27.16;65.42
76577;DHT22;65441;44.748;37.600;2023-08-01T15:27:17;27.21;65.15
76577;DHT22;65441;44.748;37.600;2023-08-01T15:29:47;27.05;66.56
76577;DHT22;65441;44.748;37.600;2023-08-01T15:32:15;27.07;66.21